Time;durP1;ratioP1;P1;durP2;ratioP2;P2;SDS_P1;SDS_P2;PMS_P1;PMS_P2;Temp;Humidity;BMP_temperature;BMP_pressure;BME280_temperature;BME280_humidity;BME280_pressure;Samples;Min_cycle;Max_cycle;Signal;HPM_P1;HPM_P2
2022/07/19 00:00:47;;;;;;;9.82;4.90;;;;;;;25.07;44.29;101706.13;5053389;28;20051;-66
2022/07/19 00:03:21;;;;;;;6.05;4.35;;;;;;;25.05;44.40;101699.97;5053459;28;20072;-66
2022/07/19 00:05:49;;;;;;;6.20;4.38;;;;;;;25.01;44.49;101692.09;5053144;28;20065;-66
2022/07/19 00:08:15;;;;;;;6.90;4.50;;;;;;;24.99;44.70;101696.06;5053177;28;20045;-66
2022/07/19 00:10:42;;;;;;;7.18;4.65;;;;;;;24.95;44.47;101691.94;5052992;28;20045;-66
2022/07/19 00:13:09;;;;;;;7.43;4.72;;;;;;;24.93;44.79;101696.75;5053245;28;20507;-66
2022/07/19 00:15:36;;;;;;;8.70;4.28;;;;;;;24.91;44.43;101696.06;5052890;28;20067;-66
2022/07/19 00:18:03;;;;;;;7.90;4.47;;;;;;;24.89;44.76;101689.91;5051801;28;20071;-66
2022/07/19 00:20:30;;;;;;;9.57;4.45;;;;;;;24.85;44.58;101700.41;5052445;28;20045;-66
2022/07/19 00:22:59;;;;;;;9.07;4.20;;;;;;;24.82;44.68;101692.53;5053085;28;20044;-65
2022/07/19 00:25:26;;;;;;;10.27;4.60;;;;;;;24.79;44.56;101700.28;5052938;28;20114;-66
2022/07/19 00:27:53;;;;;;;8.63;5.07;;;;;;;24.74;44.76;101692.59;5051468;28;20048;-66
2022/07/19 00:30:19;;;;;;;7.75;4.45;;;;;;;24.69;44.72;101684.88;5052906;28;20037;-66
2022/07/19 00:32:55;;;;;;;7.47;4.35;;;;;;;24.64;45.07;101684.56;5052584;28;20505;-66
2022/07/19 00:35:22;;;;;;;6.57;4.10;;;;;;;24.62;44.84;101683.03;5053050;28;20065;-67
2022/07/19 00:37:49;;;;;;;8.00;4.55;;;;;;;24.60;45.20;101680.47;5052334;28;20336;-66
2022/07/19 00:40:24;;;;;;;7.22;4.43;;;;;;;24.58;45.11;101679.81;5052717;28;20045;-66
2022/07/19 00:42:56;;;;;;;7.28;4.80;;;;;;;24.54;45.23;101678.44;5052454;28;20044;-66
2022/07/19 00:45:23;;;;;;;7.40;5.82;;;;;;;24.51;45.39;101678.78;5052473;28;20057;-66
2022/07/19 00:47:49;;;;;;;7.63;5.22;;;;;;;24.47;45.57;101680.19;5052516;28;20059;-66
2022/07/19 00:50:17;;;;;;;10.07;5.32;;;;;;;24.42;45.71;101674.38;5052310;28;20392;-66
2022/07/19 00:52:50;;;;;;;11.00;5.30;;;;;;;24.36;45.67;101675.94;5052570;28;20581;-66
2022/07/19 00:55:20;;;;;;;10.73;5.35;;;;;;;24.32;46.17;101676.47;5052224;28;20037;-66
2022/07/19 00:57:47;;;;;;;7.10;5.30;;;;;;;24.27;45.90;101668.78;5052755;28;20033;-66
2022/07/19 01:00:16;;;;;;;7.13;5.10;;;;;;;24.24;46.41;101668.25;5052280;28;20055;-66
2022/07/19 01:02:45;;;;;;;7.35;5.15;;;;;;;24.21;46.19;101669.47;5052337;28;20055;-66
2022/07/19 01:05:11;;;;;;;8.18;4.72;;;;;;;24.18;46.34;101671.69;5052244;28;20127;-66
2022/07/19 01:07:40;;;;;;;6.90;4.63;;;;;;;24.15;46.31;101666.56;5052014;28;20139;-66
2022/07/19 01:10:10;;;;;;;8.57;5.00;;;;;;;24.12;46.39;101672.41;5052308;28;20052;-66
2022/07/19 01:12:42;;;;;;;10.70;5.18;;;;;;;24.11;46.67;101670.69;5050769;28;20041;-66
2022/07/19 01:15:32;;;;;;;9.77;6.05;;;;;;;24.09;46.77;101666.25;5052189;28;20044;-66
2022/07/19 01:17:59;;;;;;;9.25;5.47;;;;;;;24.08;46.64;101667.28;5051414;28;20048;-66
2022/07/19 01:20:26;;;;;;;9.00;5.90;;;;;;;24.07;46.45;101668.31;5051428;28;20053;-66
2022/07/19 01:23:00;;;;;;;6.22;5.38;;;;;;;24.07;46.94;101667.47;5051939;28;20795;-67
2022/07/19 01:25:36;;;;;;;8.15;6.00;;;;;;;24.05;46.65;101666.78;5051893;28;20141;-67
2022/07/19 01:28:05;;;;;;;7.60;5.97;;;;;;;24.04;46.54;101667.81;5051540;28;20124;-67
2022/07/19 01:30:33;;;;;;;10.45;5.90;;;;;;;23.99;46.73;101667.50;5051866;28;20037;-66
2022/07/19 01:33:04;;;;;;;7.72;5.78;;;;;;;23.93;46.86;101676.44;5051746;28;20491;-66
2022/07/19 01:35:31;;;;;;;9.48;5.90;;;;;;;23.88;46.88;101671.47;5051552;28;20546;-66
2022/07/19 01:37:58;;;;;;;13.45;6.53;;;;;;;23.84;46.92;101667.38;5051705;28;20037;-66
2022/07/19 01:40:25;;;;;;;9.13;6.85;;;;;;;23.80;46.79;101679.72;5051445;28;20048;-66
2022/07/19 01:42:55;;;;;;;9.95;6.97;;;;;;;23.76;46.95;101679.19;5051719;28;20041;-66
2022/07/19 01:45:21;;;;;;;8.05;6.60;;;;;;;23.70;46.77;101676.28;5051836;28;20045;-66
2022/07/19 01:47:48;;;;;;;11.82;8.45;;;;;;;23.65;47.06;101678.69;5051451;28;20036;-65
2022/07/19 01:50:17;;;;;;;11.10;8.35;;;;;;;23.58;47.29;101674.94;5051283;28;20562;-66
2022/07/19 01:52:48;;;;;;;12.25;8.25;;;;;;;23.52;47.37;101664.63;5051849;28;20045;-65
2022/07/19 01:55:18;;;;;;;12.75;8.52;;;;;;;23.46;47.31;101667.03;5051581;28;20469;-65
2022/07/19 01:57:46;;;;;;;14.05;8.30;;;;;;;23.41;47.38;101666.69;5051134;28;20041;-65
2022/07/19 02:00:13;;;;;;;11.35;7.88;;;;;;;23.38;47.51;101671.66;5051030;28;20391;-65
2022/07/19 02:02:42;;;;;;;12.55;8.75;;;;;;;23.35;48.07;101666.53;5051619;28;20045;-66
2022/07/19 02:05:09;;;;;;;11.23;8.20;;;;;;;23.35;47.70;101663.78;5051748;28;20095;-66
2022/07/19 02:07:37;;;;;;;12.73;9.43;;;;;;;23.35;48.10;101667.38;5051099;28;20044;-65
2022/07/19 02:10:05;;;;;;;15.52;8.40;;;;;;;23.34;47.85;101656.59;5051278;28;20128;-66
2022/07/19 02:12:32;;;;;;;13.15;8.75;;;;;;;23.32;47.92;101665.00;5051253;28;20037;-66
2022/07/19 02:15:07;;;;;;;12.48;8.82;;;;;;;23.30;48.18;101664.31;5051335;28;20045;-66
2022/07/19 02:17:33;;;;;;;10.10;8.80;;;;;;;23.28;48.34;101663.63;5051501;28;20044;-66
2022/07/19 02:20:01;;;;;;;11.60;9.05;;;;;;;23.27;48.31;101663.81;5051123;28;20041;-66
2022/07/19 02:22:27;;;;;;;14.05;8.20;;;;;;;23.25;48.12;101658.50;5051533;28;20334;-66
2022/07/19 02:24:54;;;;;;;10.55;8.00;;;;;;;23.23;48.57;101659.69;5051113;28;20064;-66
2022/07/19 02:27:21;;;;;;;11.95;8.93;;;;;;;23.22;48.64;101657.97;5051270;28;20065;-66
2022/07/19 02:29:48;;;;;;;9.85;8.73;;;;;;;23.20;48.80;101655.41;5055391;28;20047;-66
2022/07/19 02:32:15;;;;;;;19.35;9.30;;;;;;;23.19;48.79;101650.97;5055247;28;20049;-67
2022/07/19 02:34:46;;;;;;;10.85;8.75;;;;;;;23.18;48.96;101651.13;5055206;28;20133;-66
2022/07/19 02:37:12;;;;;;;12.10;8.93;;;;;;;23.19;48.41;101650.97;5054903;28;20468;-67
2022/07/19 02:39:39;;;;;;;11.43;8.50;;;;;;;23.17;48.55;101647.53;5055143;28;20044;-67
2022/07/19 02:42:05;;;;;;;13.32;8.95;;;;;;;23.16;48.79;101640.34;5054888;28;20444;-67
2022/07/19 02:44:32;;;;;;;13.32;9.60;;;;;;;23.16;48.87;101644.97;5054461;28;20041;-67
2022/07/19 02:46:58;;;;;;;12.43;9.02;;;;;;;23.14;48.83;101637.78;5054735;28;20040;-67
2022/07/19 02:49:25;;;;;;;15.60;8.27;;;;;;;23.14;48.64;101643.25;5054734;28;20047;-67
2022/07/19 02:51:52;;;;;;;11.80;8.27;;;;;;;23.16;48.67;101639.47;5054714;28;20491;-67
2022/07/19 02:54:19;;;;;;;11.32;8.68;;;;;;;23.18;48.68;101638.28;5054702;28;20047;-67
2022/07/19 02:56:46;;;;;;;12.25;8.13;;;;;;;23.18;48.99;101637.44;5054422;28;20041;-69
2022/07/19 02:59:12;;;;;;;9.85;8.23;;;;;;;23.17;48.84;101641.19;5054255;28;20081;-67
2022/07/19 03:01:39;;;;;;;9.65;8.63;;;;;;;23.12;48.69;101642.56;5054478;28;20041;-67
2022/07/19 03:04:07;;;;;;;10.52;8.68;;;;;;;23.10;48.60;101639.16;5054281;28;20033;-67
2022/07/19 03:06:34;;;;;;;12.90;8.35;;;;;;;23.07;48.60;101638.63;5054314;28;20052;-67
2022/07/19 03:09:01;;;;;;;11.70;8.00;;;;;;;23.04;48.76;101637.09;5053641;28;20041;-68
2022/07/19 03:11:27;;;;;;;9.90;8.68;;;;;;;23.02;48.92;101639.13;5054750;28;20052;-67
2022/07/19 03:13:56;;;;;;;10.43;8.48;;;;;;;23.01;48.95;101636.53;5054357;28;20041;-67
2022/07/19 03:16:22;;;;;;;9.98;7.60;;;;;;;23.00;49.18;101635.69;5053898;28;20086;-67
2022/07/19 03:18:49;;;;;;;9.93;8.27;;;;;;;23.02;48.96;101630.03;5054259;28;20530;-66
2022/07/19 03:21:16;;;;;;;16.23;9.10;;;;;;;23.05;49.16;101627.00;5053967;28;20495;-66
2022/07/19 03:23:47;;;;;;;10.50;8.27;;;;;;;23.06;49.40;101631.44;5054549;28;20037;-66
2022/07/19 03:26:13;;;;;;;10.20;7.88;;;;;;;23.08;48.98;101632.97;5053977;28;20029;-66
2022/07/19 03:28:40;;;;;;;12.10;8.07;;;;;;;23.10;49.17;101624.59;5054507;28;20040;-67
2022/07/19 03:31:06;;;;;;;10.65;8.02;;;;;;;23.09;48.83;101620.13;5054166;28;20053;-66
2022/07/19 03:33:36;;;;;;;9.88;7.70;;;;;;;23.08;48.99;101618.41;5053957;28;20045;-69
2022/07/19 03:36:04;;;;;;;11.73;8.65;;;;;;;23.05;48.96;101622.38;5054197;28;20045;-66
2022/07/19 03:38:30;;;;;;;12.30;7.75;;;;;;;23.04;49.05;101622.53;5053371;28;20037;-66
2022/07/19 03:40:57;;;;;;;14.32;7.82;;;;;;;23.04;48.73;101628.00;5053312;28;20045;-66
2022/07/19 03:43:24;;;;;;;9.07;7.85;;;;;;;23.02;48.63;101621.81;5054032;28;20423;-67
2022/07/19 03:45:51;;;;;;;9.57;8.05;;;;;;;23.00;48.60;101634.84;5054148;28;20438;-66
2022/07/19 03:48:18;;;;;;;11.00;7.65;;;;;;;22.97;48.71;101622.34;5053651;28;20051;-66
2022/07/19 03:50:44;;;;;;;11.07;8.02;;;;;;;22.98;48.98;101628.66;5054346;28;20053;-67
2022/07/19 03:53:13;;;;;;;10.70;8.13;;;;;;;22.98;49.01;101628.66;5053967;28;20045;-66
2022/07/19 03:55:39;;;;;;;11.15;8.15;;;;;;;22.97;48.76;101624.22;5054016;28;20052;-66
2022/07/19 03:58:06;;;;;;;9.23;7.70;;;;;;;22.96;49.23;101628.84;5053609;28;20376;-66
2022/07/19 04:00:33;;;;;;;12.02;8.27;;;;;;;22.95;49.02;101634.50;5053234;28;20085;-66
2022/07/19 04:03:04;;;;;;;9.20;8.05;;;;;;;22.91;48.92;101631.22;5053440;28;20513;-66
2022/07/19 04:05:31;;;;;;;10.93;8.85;;;;;;;22.83;48.88;101633.97;5052628;28;20056;-66
2022/07/19 04:07:57;;;;;;;13.15;8.80;;;;;;;22.77;49.06;101635.47;5053228;28;20064;-66
2022/07/19 04:10:24;;;;;;;11.35;8.55;;;;;;;22.73;49.09;101633.25;5053263;28;20041;-66
2022/07/19 04:12:54;;;;;;;9.50;8.27;;;;;;;22.71;49.21;101635.28;5053357;28;20045;-67
2022/07/19 04:15:21;;;;;;;10.50;7.95;;;;;;;22.70;49.32;101642.66;5053112;28;20037;-68
2022/07/19 04:17:47;;;;;;;12.52;8.82;;;;;;;22.71;49.10;101640.75;5052066;28;20102;-66
2022/07/19 04:20:14;;;;;;;10.88;7.88;;;;;;;22.72;49.50;101639.75;5053769;28;20067;-66
2022/07/19 04:22:45;;;;;;;13.32;8.60;;;;;;;22.70;49.55;101637.16;5052341;28;20045;-66
2022/07/19 04:25:12;;;;;;;11.73;8.05;;;;;;;22.69;49.52;101634.59;5052914;28;20064;-66
2022/07/19 04:27:38;;;;;;;15.93;8.52;;;;;;;22.69;49.51;101638.19;5053008;28;20068;-66
2022/07/19 04:30:05;;;;;;;12.48;8.60;;;;;;;22.69;49.31;101640.94;5053197;28;20044;-67
2022/07/19 04:32:38;;;;;;;11.52;8.48;;;;;;;22.71;49.46;101643.50;5051592;28;20041;-67
2022/07/19 04:35:07;;;;;;;9.48;8.10;;;;;;;22.72;49.69;101643.34;5052972;28;20491;-66
2022/07/19 04:37:33;;;;;;;11.73;8.27;;;;;;;22.73;49.48;101644.19;5053125;28;20049;-67
2022/07/19 04:40:00;;;;;;;11.18;8.90;;;;;;;22.74;49.52;101646.75;5052916;28;20049;-66
2022/07/19 04:42:26;;;;;;;16.40;9.05;;;;;;;22.74;49.60;101638.53;5052786;28;20055;-66
2022/07/19 04:44:54;;;;;;;9.90;8.85;;;;;;;22.75;49.92;101633.94;5053218;28;20120;-66
2022/07/19 04:47:21;;;;;;;13.85;9.02;;;;;;;22.76;49.88;101641.97;5053148;28;20045;-66
2022/07/19 04:49:48;;;;;;;11.73;10.05;;;;;;;22.76;49.64;101636.50;5052202;28;20400;-67
2022/07/19 04:52:14;;;;;;;12.63;10.10;;;;;;;22.79;49.87;101640.78;5051376;28;20072;-66
2022/07/19 04:54:41;;;;;;;14.98;9.60;;;;;;;22.80;49.82;101637.91;5052627;28;20037;-67
2022/07/19 04:57:07;;;;;;;11.90;9.55;;;;;;;22.81;49.75;101636.88;5052609;28;20095;-66
2022/07/19 04:59:34;;;;;;;11.00;9.45;;;;;;;22.85;49.93;101634.66;5051768;28;20067;-66
2022/07/19 05:02:00;;;;;;;11.30;9.73;;;;;;;22.90;49.99;101634.16;5051241;28;20053;-66
2022/07/19 05:04:30;;;;;;;12.93;9.40;;;;;;;22.94;50.24;101628.16;5052481;28;20455;-66
2022/07/19 05:06:57;;;;;;;11.75;9.43;;;;;;;23.00;49.96;101624.72;5051049;28;20053;-67
2022/07/19 05:09:26;;;;;;;15.48;9.95;;;;;;;23.05;49.94;101635.22;5052146;28;20059;-67
2022/07/19 05:11:53;;;;;;;12.45;10.43;;;;;;;23.10;49.82;101632.81;5052562;28;20410;-66
2022/07/19 05:14:24;;;;;;;13.52;10.50;;;;;;;23.14;49.69;101634.19;5052553;28;20041;-66
2022/07/19 05:16:50;;;;;;;14.02;10.15;;;;;;;23.19;49.92;101637.25;5051965;28;20044;-66
2022/07/19 05:19:17;;;;;;;15.30;11.18;;;;;;;23.23;49.59;101632.28;5052249;28;20506;-66
2022/07/19 05:21:44;;;;;;;12.20;10.93;;;;;;;23.27;49.79;101639.13;5052081;28;20083;-66
2022/07/19 05:24:13;;;;;;;12.15;10.63;;;;;;;23.32;50.06;101640.31;5052927;28;20042;-66
2022/07/19 05:26:39;;;;;;;13.43;11.68;;;;;;;23.35;49.95;101639.13;5052211;28;20582;-67
2022/07/19 05:29:06;;;;;;;14.18;11.48;;;;;;;23.37;49.84;101639.81;5052392;28;20450;-66
2022/07/19 05:31:32;;;;;;;15.02;13.00;;;;;;;23.42;49.90;101643.75;5053317;28;20092;-66
2022/07/19 05:34:00;;;;;;;25.02;14.88;;;;;;;23.48;49.83;101644.94;5053872;28;20748;-67
2022/07/19 05:36:26;;;;;;;22.40;15.23;;;;;;;23.51;49.93;101640.97;5053200;28;20047;-66
2022/07/19 05:38:53;;;;;;;22.00;14.50;;;;;;;23.56;50.05;101644.09;5053551;28;20051;-67
2022/07/19 05:41:21;;;;;;;19.25;15.10;;;;;;;23.61;49.97;101641.69;5054222;28;20064;-66
2022/07/19 05:43:55;;;;;;;17.40;15.35;;;;;;;23.67;50.19;101633.59;5054054;28;20049;-67
2022/07/19 05:46:22;;;;;;;16.90;14.95;;;;;;;23.75;50.11;101632.72;5055994;28;20057;-66
2022/07/19 05:48:49;;;;;;;18.15;14.65;;;;;;;23.81;49.94;101639.44;5054787;28;20479;-66
2022/07/19 05:51:16;;;;;;;15.57;13.95;;;;;;;23.88;49.86;101633.06;5052488;28;20479;-66
2022/07/19 05:53:47;;;;;;;16.30;11.95;;;;;;;23.96;49.75;101635.78;5052649;28;20045;-66
2022/07/19 05:56:14;;;;;;;16.02;11.90;;;;;;;24.07;49.70;101643.63;5052491;28;20056;-65
2022/07/19 05:58:40;;;;;;;12.63;10.88;;;;;;;24.17;49.65;101643.41;5052024;28;20064;-67
2022/07/19 06:01:19;;;;;;;16.30;11.93;;;;;;;24.30;49.35;101642.84;5052188;28;20052;-67
2022/07/19 06:03:47;;;;;;;13.40;11.43;;;;;;;24.46;49.20;101639.16;5051570;28;20059;-67
2022/07/19 06:06:22;;;;;;;14.07;11.18;;;;;;;24.58;49.25;101646.84;5052022;28;20550;-67
2022/07/19 06:08:49;;;;;;;15.38;11.77;;;;;;;24.68;49.16;101639.22;5052174;28;20040;-67
2022/07/19 06:11:19;;;;;;;13.57;11.00;;;;;;;24.79;49.11;101642.59;5051458;28;20044;-67
2022/07/19 06:13:51;;;;;;;14.77;10.75;;;;;;;24.89;48.76;101649.53;5048228;28;20037;-67
2022/07/19 06:16:17;;;;;;;13.40;9.75;;;;;;;24.98;48.78;101647.63;5047465;28;20413;-68
2022/07/19 06:18:49;;;;;;;13.13;10.40;;;;;;;25.12;48.58;101652.31;5049305;28;20123;-68
2022/07/19 06:21:18;;;;;;;12.48;8.82;;;;;;;25.28;48.40;101641.22;5049903;28;20114;-66
2022/07/19 06:23:52;;;;;;;15.23;9.90;;;;;;;25.49;48.03;101645.97;5051778;28;20047;-68
2022/07/19 06:26:19;;;;;;;12.13;8.57;;;;;;;25.70;47.85;101648.03;5053757;28;20040;-67
2022/07/19 06:28:45;;;;;;;9.63;8.63;;;;;;;25.93;47.69;101642.44;5052732;28;20044;-67
2022/07/19 06:31:14;;;;;;;13.90;9.57;;;;;;;26.12;46.97;101647.38;5051436;28;20147;-68
2022/07/19 06:33:48;;;;;;;12.18;9.07;;;;;;;26.33;46.77;101645.78;5051777;28;20475;-66
2022/07/19 06:36:16;;;;;;;11.45;8.70;;;;;;;26.54;46.62;101638.41;5049973;28;20037;-71
2022/07/19 06:38:43;;;;;;;13.98;8.25;;;;;;;26.75;46.27;101643.09;5049586;28;20051;-66
2022/07/19 06:41:13;;;;;;;11.35;7.90;;;;;;;26.96;45.76;101653.28;5048117;28;20398;-66
2022/07/19 06:43:44;;;;;;;10.32;7.82;;;;;;;27.12;45.61;101649.44;5051127;28;20063;-66
2022/07/19 06:46:11;;;;;;;13.38;8.80;;;;;;;27.26;45.36;101645.75;5050428;28;20410;-66
2022/07/19 06:48:37;;;;;;;14.43;8.18;;;;;;;27.43;45.65;101638.03;5050302;28;20041;-66
2022/07/19 06:51:08;;;;;;;13.80;7.85;;;;;;;27.59;44.98;101643.28;5053007;28;20045;-66
2022/07/19 06:53:36;;;;;;;10.32;7.85;;;;;;;27.76;45.18;101641.09;5050529;28;20046;-66
2022/07/19 06:56:03;;;;;;;12.07;7.88;;;;;;;27.94;44.75;101637.78;5051966;28;20059;-67
2022/07/19 06:58:29;;;;;;;11.73;7.57;;;;;;;28.15;44.55;101643.22;5049227;28;20039;-66
2022/07/19 07:01:00;;;;;;;15.45;7.95;;;;;;;28.36;44.00;101637.63;5050575;28;20112;-66
2022/07/19 07:03:28;;;;;;;12.45;7.72;;;;;;;28.54;43.77;101639.81;5051403;28;20486;-66
2022/07/19 07:05:54;;;;;;;15.45;8.05;;;;;;;28.70;43.46;101636.66;5052943;28;20863;-66
2022/07/19 07:08:21;;;;;;;11.02;7.60;;;;;;;28.86;43.27;101637.34;5050153;28;20047;-66
2022/07/19 07:10:48;;;;;;;16.63;8.75;;;;;;;29.04;42.94;101638.47;5048622;28;20414;-66
2022/07/19 07:13:18;;;;;;;11.45;7.32;;;;;;;29.18;42.71;101639.34;5049118;28;20047;-67
2022/07/19 07:15:45;;;;;;;11.75;7.70;;;;;;;29.28;42.34;101642.53;5055010;28;20433;-66
2022/07/19 07:18:12;;;;;;;10.85;7.20;;;;;;;29.37;42.17;101644.00;5059057;28;20029;-67
2022/07/19 07:20:38;;;;;;;12.20;6.78;;;;;;;29.45;42.13;101637.44;5070154;28;20482;-67
2022/07/19 07:23:09;;;;;;;13.57;7.00;;;;;;;29.59;41.78;101644.66;5063631;28;20051;-65
2022/07/19 07:25:36;;;;;;;10.10;6.80;;;;;;;29.71;41.50;101637.41;5058847;28;20650;-66
2022/07/19 07:28:03;;;;;;;10.18;6.60;;;;;;;29.84;41.28;101635.69;5065933;28;20040;-65
2022/07/19 07:30:29;;;;;;;12.25;6.72;;;;;;;29.99;41.16;101642.69;5063219;28;20037;-66
2022/07/19 07:32:59;;;;;;;12.25;6.72;;;;;;;30.18;40.85;101632.63;5065266;28;20041;-65
2022/07/19 07:35:26;;;;;;;10.73;6.88;;;;;;;30.33;40.62;101633.19;5067395;28;20067;-64
2022/07/19 07:37:53;;;;;;;8.80;5.88;;;;;;;30.46;40.58;101634.19;5059826;28;20045;-65
2022/07/19 07:40:19;;;;;;;8.50;5.85;;;;;;;30.61;40.56;101626.50;5063099;28;20052;-64
2022/07/19 07:42:46;;;;;;;8.45;6.07;;;;;;;30.78;40.15;101626.81;5051777;28;20041;-64
2022/07/19 07:45:14;;;;;;;9.52;5.93;;;;;;;30.97;39.88;101623.91;5049054;28;20108;-64
2022/07/19 07:47:41;;;;;;;16.60;5.80;;;;;;;31.10;39.45;101620.19;5047133;28;20496;-64
2022/07/19 07:50:08;;;;;;;15.77;5.95;;;;;;;31.26;39.11;101616.91;5052559;28;20120;-65
2022/07/19 07:52:39;;;;;;;7.82;4.90;;;;;;;31.44;38.71;101613.31;5049796;28;20073;-65
2022/07/19 07:55:07;;;;;;;8.20;5.25;;;;;;;31.60;38.64;101609.94;5050232;28;20037;-65
2022/07/19 07:57:53;;;;;;;6.63;4.07;;;;;;;31.79;38.02;101613.63;5048869;28;20048;-65
2022/07/19 08:00:21;;;;;;;9.85;5.03;;;;;;;31.92;37.82;101616.25;5050282;28;20047;-65
2022/07/19 08:02:50;;;;;;;8.98;4.47;;;;;;;32.04;37.66;101609.94;5050949;28;20128;-65
2022/07/19 08:05:23;;;;;;;12.13;4.60;;;;;;;32.17;37.54;101607.84;5047496;28;20511;-65
2022/07/19 08:07:50;;;;;;;9.00;4.47;;;;;;;32.32;37.50;101603.84;5050240;28;20565;-65
2022/07/19 08:10:21;;;;;;;7.22;4.70;;;;;;;32.45;36.91;101606.44;5049596;28;20052;-65
2022/07/19 08:12:52;;;;;;;10.13;4.13;;;;;;;32.55;36.97;101603.94;5049609;28;20048;-65
2022/07/19 08:15:21;;;;;;;11.15;4.45;;;;;;;32.65;36.79;101600.59;5050437;28;20036;-65
2022/07/19 08:17:47;;;;;;;7.13;4.00;;;;;;;32.79;36.52;101607.69;5052319;28;20045;-65
2022/07/19 08:20:14;;;;;;;5.72;3.40;;;;;;;32.94;36.30;101602.53;5046116;28;20037;-65
2022/07/19 08:22:42;;;;;;;8.45;4.50;;;;;;;33.12;36.17;101604.38;5049974;28;20052;-65
2022/07/19 08:25:09;;;;;;;13.10;4.07;;;;;;;33.24;36.11;101605.25;5050022;28;20033;-65
2022/07/19 08:27:35;;;;;;;9.55;3.85;;;;;;;33.37;36.04;101607.81;5048920;28;20056;-65
2022/07/19 08:30:04;;;;;;;13.93;4.10;;;;;;;33.52;35.92;101601.78;5049695;28;20083;-65
2022/07/19 08:32:37;;;;;;;9.27;4.00;;;;;;;33.68;35.59;101609.41;5047755;28;20115;-66
2022/07/19 08:35:05;;;;;;;8.20;3.63;;;;;;;33.79;35.29;101590.97;5048046;28;20406;-65
2022/07/19 08:37:32;;;;;;;7.93;3.63;;;;;;;33.94;35.04;101596.06;5049229;28;20139;-64
2022/07/19 08:39:58;;;;;;;7.90;3.65;;;;;;;34.08;34.95;101594.69;5049303;28;20059;-66
2022/07/19 08:42:25;;;;;;;9.15;4.07;;;;;;;34.21;34.83;101594.44;5048027;28;20048;-65
2022/07/19 08:45:13;;;;;;;9.25;4.05;;;;;;;34.34;34.54;101593.34;5048754;28;20044;-64
2022/07/19 08:47:42;;;;;;;9.38;4.47;;;;;;;34.46;34.04;101591.34;5051567;28;20068;-65
2022/07/19 08:50:11;;;;;;;9.57;4.10;;;;;;;34.56;34.08;101591.53;5052913;28;20049;-64
2022/07/19 08:52:42;;;;;;;7.60;3.53;;;;;;;34.68;33.86;101583.09;5052966;28;20143;-65
2022/07/19 08:55:10;;;;;;;9.48;3.58;;;;;;;34.83;33.74;101585.34;5052051;28;20380;-65
2022/07/19 09:00:22;;;;;;;10.73;3.55;;;;;;;35.06;32.89;101581.56;5052078;28;20051;-64
2022/07/19 09:03:03;;;;;;;9.05;3.90;;;;;;;35.13;32.37;101579.47;5037428;28;20486;-64
2022/07/19 09:05:33;;;;;;;8.90;3.75;;;;;;;35.23;32.75;101577.69;5051973;28;20043;-65
2022/07/19 09:08:05;;;;;;;7.22;3.45;;;;;;;35.32;32.11;101575.31;5052046;28;20062;-64
2022/07/19 09:10:35;;;;;;;10.82;3.55;;;;;;;35.39;31.75;101573.19;5052009;28;20055;-64
2022/07/19 09:13:16;;;;;;;8.38;3.80;;;;;;;35.47;31.52;101569.97;5051683;28;20761;-64
2022/07/19 09:15:46;;;;;;;5.97;3.40;;;;;;;35.55;31.59;101571.47;5051472;28;20067;-65
2022/07/19 09:18:19;;;;;;;10.18;3.55;;;;;;;35.64;31.46;101569.94;5052643;28;20078;-65
2022/07/19 09:20:49;;;;;;;8.80;3.45;;;;;;;35.76;31.36;101562.28;5051770;28;20068;-65
2022/07/19 09:23:18;;;;;;;6.75;3.67;;;;;;;35.89;30.76;101561.94;5050463;28;20218;-64
2022/07/19 09:25:50;;;;;;;9.60;3.88;;;;;;;36.01;30.65;101566.56;5051190;28;20048;-65
2022/07/19 09:28:18;;;;;;;7.38;3.30;;;;;;;36.14;30.00;101558.59;5050732;28;20043;-65
2022/07/19 09:30:48;;;;;;;6.47;3.25;;;;;;;36.25;29.88;101559.56;5051697;28;20162;-65
2022/07/19 09:33:20;;;;;;;5.30;3.60;;;;;;;36.36;30.06;101561.41;5051702;28;20415;-65
2022/07/19 09:35:49;;;;;;;7.22;3.22;;;;;;;36.51;29.57;101564.38;5051801;28;20043;-65
2022/07/19 09:38:19;;;;;;;5.10;3.47;;;;;;;36.64;29.12;101559.47;5051093;28;20045;-64
2022/07/19 09:40:47;;;;;;;9.00;3.63;;;;;;;36.77;28.99;101557.09;5051685;28;20475;-65
2022/07/19 09:43:16;;;;;;;7.15;3.22;;;;;;;36.87;28.49;101556.34;5051146;28;20044;-65
2022/07/19 09:46:03;;;;;;;6.03;3.28;;;;;;;37.03;28.85;101552.56;5051625;28;20048;-65
2022/07/19 09:48:43;;;;;;;7.93;3.17;;;;;;;37.17;28.60;101553.81;5050468;28;20037;-64
2022/07/19 09:51:11;;;;;;;6.32;2.78;;;;;;;37.27;28.33;101550.25;5048050;28;20552;-64
2022/07/19 09:53:38;;;;;;;5.05;3.53;;;;;;;37.37;28.13;101550.34;5051249;28;20398;-65
2022/07/19 09:56:05;;;;;;;5.95;3.25;;;;;;;37.51;28.25;101542.28;5051035;28;20080;-65
2022/07/19 09:58:32;;;;;;;11.43;3.80;;;;;;;37.63;27.97;101544.88;5051497;28;20037;-65
2022/07/19 10:01:01;;;;;;;9.52;3.53;;;;;;;37.69;27.31;101557.78;5051259;28;20072;-65
2022/07/19 10:03:29;;;;;;;4.85;3.10;;;;;;;37.72;27.61;101544.09;5051459;28;20037;-65
2022/07/19 10:06:00;;;;;;;9.70;3.80;;;;;;;37.81;27.16;101544.41;5051362;28;20148;-65
2022/07/19 10:08:27;;;;;;;7.57;3.50;;;;;;;37.93;27.23;101552.63;5050416;28;20123;-64
2022/07/19 10:10:54;;;;;;;7.18;3.45;;;;;;;38.06;26.94;101540.91;5051793;28;20037;-65
2022/07/19 10:13:24;;;;;;;4.85;3.17;;;;;;;38.20;26.43;101536.47;5050926;28;20045;-65
2022/07/19 10:15:54;;;;;;;12.48;3.70;;;;;;;38.33;26.26;101541.56;5051081;28;20553;-65
2022/07/19 10:18:28;;;;;;;5.68;3.17;;;;;;;38.44;26.06;101536.81;5051101;28;20470;-65
2022/07/19 10:20:55;;;;;;;6.53;3.00;;;;;;;38.54;26.37;101536.81;5051094;28;20075;-65
2022/07/19 10:23:31;;;;;;;11.43;3.30;;;;;;;38.63;25.94;101532.38;5050723;28;20479;-65
2022/07/19 10:25:57;;;;;;;6.95;3.03;;;;;;;38.72;26.06;101529.88;5050250;28;20076;-65
2022/07/19 10:28:34;;;;;;;7.22;3.00;;;;;;;38.83;25.34;101531.56;5051144;28;20041;-65
2022/07/19 10:31:25;;;;;;;6.60;3.33;;;;;;;38.95;25.36;101531.25;5050487;28;20040;-65
2022/07/19 10:34:09;;;;;;;7.82;3.15;;;;;;;39.05;25.22;101534.94;5050890;28;20045;-65
2022/07/19 10:36:49;;;;;;;7.00;3.20;;;;;;;39.12;24.98;101525.38;5050494;28;20404;-65
2022/07/19 10:39:30;;;;;;;6.00;3.10;;;;;;;39.18;24.64;101521.44;5051100;28;20041;-65
2022/07/19 10:42:05;;;;;;;8.80;2.88;;;;;;;39.28;24.70;101521.41;5050953;28;20045;-65
2022/07/19 10:44:35;;;;;;;4.63;2.45;;;;;;;39.40;24.43;101508.75;5050381;28;20531;-65
2022/07/19 10:47:01;;;;;;;5.88;2.60;;;;;;;39.49;24.09;101516.63;5050646;28;20046;-65
2022/07/19 10:49:47;;;;;;;5.95;2.47;;;;;;;39.54;24.20;101509.00;5051439;28;20403;-65
2022/07/19 10:52:26;;;;;;;7.38;2.83;;;;;;;39.59;24.00;101506.19;5053764;28;20253;-64
2022/07/19 10:55:23;;;;;;;4.93;2.33;;;;;;;39.67;23.95;101504.75;5054767;28;20036;-66
2022/07/19 10:57:52;;;;;;;7.10;2.33;;;;;;;39.78;23.98;101497.09;5054907;28;20128;-65
2022/07/19 11:00:25;;;;;;;5.82;2.25;;;;;;;39.85;23.40;101504.09;5054711;28;20410;-65
2022/07/19 11:03:22;;;;;;;3.40;2.03;;;;;;;40.02;22.92;101501.78;5054661;28;20044;-65
2022/07/19 11:05:58;;;;;;;5.80;2.30;;;;;;;40.28;23.05;101493.19;5032440;28;20423;-65
2022/07/19 11:08:39;;;;;;;8.10;2.40;;;;;;;40.48;21.73;101489.41;5034428;28;20049;-65
2022/07/19 11:11:08;;;;;;;6.22;1.95;;;;;;;40.63;21.82;101489.28;5034494;28;20541;-65
2022/07/19 11:13:36;;;;;;;2.45;1.73;;;;;;;40.72;21.44;101490.34;5034290;28;20486;-65
2022/07/19 11:16:04;;;;;;;4.70;1.70;;;;;;;40.81;21.61;101485.78;5034397;28;20111;-65
2022/07/19 11:18:32;;;;;;;3.47;2.50;;;;;;;40.96;21.45;101476.38;5053869;28;20407;-65
2022/07/19 11:21:04;;;;;;;6.57;2.40;;;;;;;41.11;21.06;101476.19;5052949;28;20048;-65
2022/07/19 11:23:36;;;;;;;6.28;2.47;;;;;;;41.24;20.88;101471.84;5054218;28;20455;-66
2022/07/19 11:26:14;;;;;;;6.40;2.25;;;;;;;41.35;20.38;101462.13;5053982;28;20048;-65
2022/07/19 11:28:42;;;;;;;6.03;2.55;;;;;;;41.42;20.67;101468.25;5054182;28;20045;-65
2022/07/19 11:31:12;;;;;;;7.32;2.50;;;;;;;41.51;20.51;101463.63;5053893;28;20033;-65